Time;durP1;ratioP1;P1;durP2;ratioP2;P2;SDS_P1;SDS_P2;PMS_P1;PMS_P2;Temp;Humidity;BMP_temperature;BMP_pressure;BME280_temperature;BME280_humidity;BME280_pressure;Samples;Min_cycle;Max_cycle;Signal;HPM_P1;HPM_P2
2022/05/11 00:00:05;;;;;;;0.10;0.10;;;;;;;21.92;43.39;101023.78;5146644;27;20051;-30
2022/05/11 00:02:31;;;;;;;0.30;0.30;;;;;;;21.93;43.40;101021.81;5143169;27;20137;-31
2022/05/11 00:04:57;;;;;;;0.10;0.10;;;;;;;21.92;43.38;101029.31;5148770;27;20045;-30
2022/05/11 00:07:22;;;;;;;0.10;0.10;;;;;;;21.93;43.38;101016.28;5147059;27;20067;-31
2022/05/11 00:09:48;;;;;;;0.10;0.10;;;;;;;21.93;43.32;101027.38;5145700;27;20543;-30
2022/05/11 00:12:14;;;;;;;0.10;0.10;;;;;;;21.92;43.72;101014.63;5147058;27;20388;-30
2022/05/11 00:14:40;;;;;;;0.10;0.10;;;;;;;21.91;43.38;101005.50;5147231;27;20082;-31
2022/05/11 00:17:06;;;;;;;0.10;0.10;;;;;;;21.92;43.18;101004.34;5127861;27;20480;-32
2022/05/11 00:19:32;;;;;;;0.10;0.10;;;;;;;21.92;43.38;101011.84;5125976;27;20058;-31
2022/05/11 00:21:58;;;;;;;0.10;0.10;;;;;;;21.92;43.43;100998.81;5146895;27;20081;-31
2022/05/11 00:24:25;;;;;;;0.10;0.10;;;;;;;21.92;43.36;101000.78;5147675;27;20050;-30
2022/05/11 00:26:51;;;;;;;0.10;0.10;;;;;;;21.93;43.30;101005.19;5147026;27;20520;-30
2022/05/11 00:29:16;;;;;;;0.10;0.10;;;;;;;21.91;43.27;100999.94;5147232;27;20053;-30
2022/05/11 00:31:42;;;;;;;0.10;0.10;;;;;;;21.91;43.42;100988.03;5146668;27;20043;-30
2022/05/11 00:34:08;;;;;;;0.10;0.10;;;;;;;21.90;43.72;100984.44;5147379;27;20043;-30
2022/05/11 00:36:33;;;;;;;0.10;0.10;;;;;;;21.91;43.43;100990.81;5146488;27;20047;-31
2022/05/11 00:38:59;;;;;;;0.10;0.10;;;;;;;21.90;43.64;100992.75;5145350;27;20051;-30
2022/05/11 00:41:25;;;;;;;0.10;0.10;;;;;;;21.92;43.31;100989.69;5146391;27;20053;-31
2022/05/11 00:43:53;;;;;;;0.10;0.10;;;;;;;21.90;43.39;100978.91;5145181;27;20042;-30
2022/05/11 00:46:38;;;;;;;0.10;0.10;;;;;;;21.91;43.34;100969.44;5145852;27;20129;-31
2022/05/11 00:49:38;;;;;;;0.10;0.10;;;;;;;21.90;43.42;100970.56;5144193;27;20061;-30
2022/05/11 00:51:57;;;;;;;0.10;0.10;;;;;;;21.89;43.36;100963.38;5128168;27;20126;-30
2022/05/11 00:54:23;;;;;;;0.10;0.10;;;;;;;21.91;43.41;100965.84;5129034;27;20078;-30
2022/05/11 00:56:52;;;;;;;0.10;0.10;;;;;;;21.91;43.50;100963.09;5145686;27;20610;-30
2022/05/11 00:59:22;;;;;;;0.10;0.10;;;;;;;21.90;43.32;100967.81;5145502;27;20437;-30
2022/05/11 01:01:47;;;;;;;0.10;0.10;;;;;;;21.90;43.27;100961.44;5125692;27;20137;-30
2022/05/11 01:04:17;;;;;;;0.10;0.10;;;;;;;21.90;43.37;100964.22;5146767;27;20394;-30
2022/05/11 01:06:43;;;;;;;0.10;0.10;;;;;;;21.90;43.46;100958.66;5145735;27;20067;-31
2022/05/11 01:09:10;;;;;;;0.10;0.10;;;;;;;21.89;43.40;100955.06;5144988;27;20455;-30
2022/05/11 01:11:40;;;;;;;0.10;0.10;;;;;;;21.91;43.50;100950.03;5128217;27;20501;-30
2022/05/11 01:14:06;;;;;;;0.10;0.10;;;;;;;21.90;43.29;100948.41;5111236;27;20066;-30
2022/05/11 01:16:32;;;;;;;0.10;0.10;;;;;;;21.91;43.30;100950.03;5145764;27;20085;-31
2022/05/11 01:18:58;;;;;;;0.10;0.10;;;;;;;21.90;43.23;100939.25;5142671;27;20035;-30
2022/05/11 01:21:35;;;;;;;0.10;0.10;;;;;;;21.90;43.48;100942.84;5145814;27;20058;-31
2022/05/11 01:24:28;;;;;;;0.10;0.10;;;;;;;21.91;43.35;100932.59;5144666;27;20122;-31
2022/05/11 01:26:55;;;;;;;0.10;0.10;;;;;;;21.89;43.39;100932.91;5129880;27;20473;-31
2022/05/11 01:29:20;;;;;;;0.10;0.10;;;;;;;21.89;43.42;100930.13;5144740;27;20088;-31
2022/05/11 01:31:46;;;;;;;0.10;0.10;;;;;;;21.89;43.31;100924.56;5146067;27;20043;-31
2022/05/11 01:34:14;;;;;;;0.10;0.10;;;;;;;21.90;43.36;100925.41;5145249;27;20107;-30
2022/05/11 01:36:40;;;;;;;0.10;0.10;;;;;;;21.89;43.41;100918.19;5145705;27;20141;-31
2022/05/11 01:39:08;;;;;;;0.10;0.10;;;;;;;21.89;43.48;100923.72;5146289;27;20575;-29
2022/05/11 01:41:37;;;;;;;0.10;0.10;;;;;;;21.89;43.41;100918.19;5128036;27;20067;-32
2022/05/11 01:44:06;;;;;;;0.10;0.10;;;;;;;21.88;43.48;100914.59;5146865;27;20584;-30
2022/05/11 01:46:31;;;;;;;;;;;;;;;21.88;43.51;100914.59;5144126;27;20126;-31
2022/05/11 01:48:57;;;;;;;0.10;0.10;;;;;;;21.88;43.43;100917.34;5149414;27;19926;-31
2022/05/11 01:51:22;;;;;;;0.10;0.10;;;;;;;21.88;43.49;100908.22;5149360;27;20571;-31
2022/05/11 01:53:48;;;;;;;0.10;0.10;;;;;;;21.87;43.54;100899.09;5149626;27;20098;-30
2022/05/11 01:56:15;;;;;;;0.10;0.10;;;;;;;21.88;43.32;100900.72;5149001;27;20111;-30
2022/05/11 01:58:41;;;;;;;0.10;0.10;;;;;;;21.88;43.44;100894.34;5148896;27;20070;-31
2022/05/11 02:01:07;;;;;;;0.10;0.10;;;;;;;21.88;43.36;100891.59;5128843;27;20062;-29
2022/05/11 02:03:33;;;;;;;0.10;0.10;;;;;;;21.88;43.65;100881.31;5148728;27;20388;-31
2022/05/11 02:08:44;;;;;;;0.10;0.10;;;;;;;21.87;43.37;100888.00;5133885;27;20376;-31
2022/05/11 02:11:11;;;;;;;0.10;0.10;;;;;;;21.89;43.35;100879.38;5149456;27;20124;-30
2022/05/11 02:13:37;;;;;;;0.10;0.10;;;;;;;21.88;43.35;100884.09;5131422;27;20204;-31
2022/05/11 02:16:03;;;;;;;0.10;0.10;;;;;;;21.89;43.44;100879.38;5146000;27;20068;-31
2022/05/11 02:18:30;;;;;;;0.10;0.10;;;;;;;21.89;43.34;100883.00;5149914;27;20067;-29
2022/05/11 02:20:56;;;;;;;0.10;0.10;;;;;;;21.88;43.51;100867.44;5148273;27;20074;-31
2022/05/11 02:23:23;;;;;;;0.10;0.10;;;;;;;21.89;43.44;100873.81;5148702;27;20465;-30
2022/05/11 02:25:50;;;;;;;0.10;0.10;;;;;;;21.88;43.37;100872.19;5129860;27;20066;-30
2022/05/11 02:28:16;;;;;;;0.10;0.10;;;;;;;21.88;43.41;100873.00;5131005;27;20485;-30
2022/05/11 02:30:43;;;;;;;0.10;0.10;;;;;;;21.88;43.45;100861.91;5148176;27;20055;-30
2022/05/11 02:33:10;;;;;;;0.10;0.10;;;;;;;21.88;43.29;100861.09;5148821;27;20085;-31
2022/05/11 02:35:36;;;;;;;0.10;0.10;;;;;;;21.89;43.37;100868.28;5149023;27;20081;-30
2022/05/11 02:38:05;;;;;;;0.10;0.10;;;;;;;21.88;43.28;100859.13;5148462;27;20146;-31
2022/05/11 02:40:33;;;;;;;0.10;0.10;;;;;;;21.88;43.40;100861.09;5149015;27;20130;-30
2022/05/11 02:43:01;;;;;;;0.10;0.10;;;;;;;21.86;43.37;100858.63;5128714;27;20137;-30
2022/05/11 02:45:27;;;;;;;0.10;0.10;;;;;;;21.87;43.39;100853.91;5149956;27;20065;-30
2022/05/11 02:47:54;;;;;;;0.15;0.15;;;;;;;21.88;43.35;100855.53;5143210;27;20043;-30
2022/05/11 02:50:23;;;;;;;0.10;0.10;;;;;;;21.87;43.29;100854.72;5147484;27;20050;-30
2022/05/11 02:52:48;;;;;;;0.10;0.10;;;;;;;21.88;43.40;100852.78;5130121;27;20100;-30
2022/05/11 02:55:14;;;;;;;0.10;0.10;;;;;;;21.89;43.23;100854.41;5149740;27;20038;-30
2022/05/11 02:57:40;;;;;;;0.10;0.10;;;;;;;21.87;43.28;100859.44;5131019;27;20047;-31
2022/05/11 03:00:09;;;;;;;0.10;0.10;;;;;;;21.88;43.34;100855.53;5142843;27;20062;-30
2022/05/11 03:02:35;;;;;;;0.10;0.10;;;;;;;21.87;43.45;100859.44;5147547;27;20429;-31
2022/05/11 03:05:01;;;;;;;0.10;0.10;;;;;;;21.87;43.35;100843.63;5148075;27;20054;-31
2022/05/11 03:07:27;;;;;;;0.10;0.10;;;;;;;21.87;43.50;100842.81;5148126;27;20091;-30
2022/05/11 03:09:53;;;;;;;0.10;0.10;;;;;;;21.86;43.49;100847.53;5146733;27;20054;-30
2022/05/11 03:12:19;;;;;;;0.10;0.10;;;;;;;21.86;43.57;100844.75;5146774;27;20042;-31
2022/05/11 03:14:46;;;;;;;0.10;0.10;;;;;;;21.88;43.41;100847.22;5147535;27;20046;-31
2022/05/11 03:17:11;;;;;;;0.10;0.10;;;;;;;21.87;43.39;100846.41;5146632;27;20488;-30
2022/05/11 03:19:38;;;;;;;0.10;0.10;;;;;;;21.87;43.47;100837.25;5144654;27;20110;-30
2022/05/11 03:22:03;;;;;;;0.10;0.10;;;;;;;21.86;43.40;100835.63;5146546;27;20054;-30
2022/05/11 03:24:29;;;;;;;0.10;0.10;;;;;;;21.87;43.28;100834.50;5147784;27;20060;-31
2022/05/11 03:26:55;;;;;;;0.10;0.10;;;;;;;21.87;43.44;100835.31;5146989;27;20038;-30
2022/05/11 03:29:20;;;;;;;0.10;0.10;;;;;;;21.86;43.47;100828.13;5149692;27;20072;-30
2022/05/11 03:34:37;;;;;;;0.10;0.10;;;;;;;21.86;43.49;100830.91;5130914;27;20078;-32
2022/05/11 03:37:07;;;;;;;0.10;0.10;;;;;;;21.86;43.47;100824.53;5128892;27;20066;-31
2022/05/11 03:39:33;;;;;;;0.10;0.10;;;;;;;21.85;43.43;100820.94;5145770;27;20126;-29
2022/05/11 03:41:59;;;;;;;0.10;0.10;;;;;;;21.85;43.38;100820.09;5146890;27;20480;-30
2022/05/11 03:44:25;;;;;;;0.10;0.10;;;;;;;21.85;43.43;100823.72;5147793;27;20069;-30
2022/05/11 03:46:52;;;;;;;0.10;0.10;;;;;;;21.85;43.36;100815.41;5146186;27;20382;-30
2022/05/11 03:49:17;;;;;;;0.10;0.10;;;;;;;21.86;43.39;100819.81;5145167;27;20088;-30
2022/05/11 03:51:44;;;;;;;0.10;0.10;;;;;;;21.85;43.36;100812.63;5146218;27;20386;-30
2022/05/11 03:54:10;;;;;;;0.10;0.10;;;;;;;21.85;43.42;100815.41;5128438;27;20456;-31
2022/05/11 03:56:35;;;;;;;0.10;0.10;;;;;;;21.85;43.41;100814.53;5128594;27;20511;-31
2022/05/11 03:59:01;;;;;;;0.10;0.10;;;;;;;21.84;43.55;100808.19;5143506;27;20050;-29
2022/05/11 04:01:27;;;;;;;0.10;0.10;;;;;;;21.85;43.39;100801.53;5146202;27;20042;-30
2022/05/11 04:03:52;;;;;;;0.10;0.10;;;;;;;21.85;43.44;100800.69;5146623;27;20039;-29
2022/05/11 04:06:18;;;;;;;0.10;0.10;;;;;;;21.85;43.20;100806.22;5145721;27;20438;-29
2022/05/11 04:08:44;;;;;;;0.10;0.10;;;;;;;21.85;43.30;100812.63;5144592;27;20091;-29
2022/05/11 04:11:11;;;;;;;0.10;0.10;;;;;;;21.86;43.49;100811.50;5145068;27;20073;-32
2022/05/11 04:13:40;;;;;;;0.10;0.10;;;;;;;21.84;43.49;100805.41;5146976;27;20076;-30
2022/05/11 04:16:07;;;;;;;0.10;0.10;;;;;;;21.85;43.47;100809.00;5145803;27;20062;-30
2022/05/11 04:18:35;;;;;;;0.10;0.10;;;;;;;21.84;43.46;100802.63;5144266;27;20477;-29
2022/05/11 04:21:01;;;;;;;0.10;0.10;;;;;;;21.84;43.40;100802.63;5146433;27;20049;-29
2022/05/11 04:23:27;;;;;;;0.10;0.10;;;;;;;21.86;43.31;100803.19;5127804;27;20070;-30
2022/05/11 04:25:52;;;;;;;0.10;0.10;;;;;;;21.77;44.10;100805.81;5128245;27;20042;-32
2022/05/11 04:28:18;;;;;;;0.10;0.10;;;;;;;21.68;44.59;100807.63;5144951;27;20050;-30
2022/05/11 04:30:44;;;;;;;0.10;0.10;;;;;;;21.78;44.63;100812.19;5145377;27;20507;-29
2022/05/11 04:33:10;;;;;;;0.10;0.10;;;;;;;21.85;44.45;100797.91;5146891;27;20460;-32
2022/05/11 04:35:36;;;;;;;0.10;0.10;;;;;;;21.88;44.42;100806.47;5146840;27;20062;-31
2022/05/11 04:38:03;;;;;;;0.10;0.10;;;;;;;21.89;44.17;100798.97;5145842;27;20190;-31
2022/05/11 04:40:30;;;;;;;0.10;0.10;;;;;;;21.90;44.21;100803.41;5144845;27;20070;-30
2022/05/11 04:42:55;;;;;;;0.10;0.10;;;;;;;21.91;43.99;100802.28;5145118;27;20134;-30
2022/05/11 04:45:21;;;;;;;0.10;0.10;;;;;;;21.91;43.98;100803.09;5146751;27;20156;-30
2022/05/11 04:47:47;;;;;;;0.10;0.10;;;;;;;21.93;43.84;100797.22;5125686;27;20134;-29
2022/05/11 04:50:16;;;;;;;0.10;0.10;;;;;;;21.94;43.96;100798.91;5144682;27;21172;-30
2022/05/11 04:52:45;;;;;;;0.10;0.10;;;;;;;21.93;43.88;100798.06;5110499;27;20047;-30
2022/05/11 04:55:11;;;;;;;0.10;0.10;;;;;;;21.95;43.87;100787.50;5145763;27;20400;-30
2022/05/11 04:57:37;;;;;;;0.10;0.10;;;;;;;21.95;43.85;100781.94;5145943;27;20100;-29
2022/05/11 05:00:05;;;;;;;0.10;0.10;;;;;;;21.96;43.75;100786.38;5143052;27;20541;-30
2022/05/11 05:02:30;;;;;;;0.10;0.10;;;;;;;21.97;43.69;100784.41;5150403;27;20133;-30
2022/05/11 05:04:58;;;;;;;0.10;0.10;;;;;;;21.97;43.64;100776.91;5145644;27;20126;-30
2022/05/11 05:07:24;;;;;;;0.10;0.10;;;;;;;21.99;43.72;100782.19;5146204;27;20160;-29
2022/05/11 05:09:50;;;;;;;0.10;0.10;;;;;;;21.99;43.75;100776.63;5145917;27;20481;-31
2022/05/11 05:12:15;;;;;;;0.10;0.10;;;;;;;22.00;43.71;100778.28;5145370;27;20051;-30
2022/05/11 05:14:42;;;;;;;0.10;0.10;;;;;;;22.00;43.65;100781.03;5146179;27;21290;-31
2022/05/11 05:17:14;;;;;;;0.10;0.10;;;;;;;22.01;43.60;100775.19;5144901;27;20137;-31
2022/05/11 05:19:42;;;;;;;0.10;0.10;;;;;;;22.01;43.61;100780.72;5142716;27;20100;-30
2022/05/11 05:22:08;;;;;;;0.10;0.10;;;;;;;22.02;43.44;100782.41;5129134;27;20063;-31
2022/05/11 05:24:34;;;;;;;0.10;0.10;;;;;;;22.03;43.52;100780.44;5148696;27;20050;-30
2022/05/11 05:27:00;;;;;;;0.10;0.10;;;;;;;22.05;43.43;100786.50;5148906;27;20038;-30
2022/05/11 05:32:12;;;;;;;0.10;0.10;;;;;;;22.06;43.52;100793.69;5132478;27;20137;-30
2022/05/11 05:34:38;;;;;;;0.10;0.10;;;;;;;22.07;43.50;100791.75;5149168;27;20138;-33
2022/05/11 05:37:04;;;;;;;0.10;0.10;;;;;;;22.08;43.32;100787.84;5146363;27;21540;-31
2022/05/11 05:39:29;;;;;;;0.10;0.10;;;;;;;22.09;43.40;100793.09;5143066;27;20081;-31
2022/05/11 05:41:55;;;;;;;0.10;0.10;;;;;;;22.09;43.36;100790.31;5135056;27;20050;-31
2022/05/11 05:44:21;;;;;;;0.10;0.10;;;;;;;22.09;43.36;100790.31;5143736;27;20057;-31
2022/05/11 05:46:47;;;;;;;0.10;0.10;;;;;;;22.09;43.45;100789.50;5140702;27;20062;-31
2022/05/11 05:49:13;;;;;;;0.10;0.10;;;;;;;22.10;43.38;100791.94;5144642;27;20396;-31
2022/05/11 05:51:39;;;;;;;0.10;0.10;;;;;;;22.10;43.28;100789.16;5124705;27;20095;-30
2022/05/11 05:54:06;;;;;;;0.10;0.10;;;;;;;22.10;43.39;100783.63;5120710;27;20287;-31
2022/05/11 05:56:32;;;;;;;0.10;0.10;;;;;;;22.11;43.29;100787.25;5138124;27;20469;-31
2022/05/11 05:59:05;;;;;;;0.10;0.10;;;;;;;22.11;43.34;100790.03;5136014;27;20449;-31
2022/05/11 06:01:32;;;;;;;0.10;0.10;;;;;;;22.09;43.39;100793.09;5139243;27;20524;-35
2022/05/11 06:03:58;;;;;;;0.10;0.10;;;;;;;22.10;43.42;100791.94;5139611;27;20392;-30
2022/05/11 06:06:24;;;;;;;0.10;0.10;;;;;;;22.11;43.27;100792.78;5142276;27;20070;-30
2022/05/11 06:08:50;;;;;;;0.10;0.10;;;;;;;22.10;43.27;100794.72;5140432;27;20046;-30
2022/05/11 06:11:16;;;;;;;0.10;0.10;;;;;;;22.11;43.26;100790.03;5147521;27;20549;-30
2022/05/11 06:13:45;;;;;;;0.32;0.20;;;;;;;22.10;43.33;100791.13;5150005;27;20064;-30
2022/05/11 06:16:14;;;;;;;0.10;0.10;;;;;;;22.10;43.30;100794.72;5143903;27;20073;-31
2022/05/11 06:18:41;;;;;;;0.10;0.10;;;;;;;22.04;44.60;100795.94;5124295;27;20053;-31
2022/05/11 06:21:09;;;;;;;0.10;0.10;;;;;;;22.13;44.26;100798.88;5128617;27;20474;-30
2022/05/11 06:23:35;;;;;;;0.10;0.10;;;;;;;22.13;44.08;100794.16;5137925;27;20070;-29
2022/05/11 06:26:01;;;;;;;0.10;0.10;;;;;;;22.14;43.97;100794.97;5132892;27;20073;-31
2022/05/11 06:28:27;;;;;;;0.10;0.10;;;;;;;22.14;43.96;100794.97;5129417;27;20085;-30
2022/05/11 06:31:14;;;;;;;0.10;0.10;;;;;;;22.14;43.87;100793.03;5121059;27;20055;-30
2022/05/11 06:33:46;;;;;;;0.10;0.10;;;;;;;22.15;43.72;100793.84;5135502;27;20066;-29
2022/05/11 06:36:12;;;;;;;0.10;0.10;;;;;;;22.15;43.71;100800.22;5137722;27;20077;-30
2022/05/11 06:38:38;;;;;;;0.10;0.10;;;;;;;22.15;43.63;100797.47;5136529;27;20126;-29
2022/05/11 06:41:09;;;;;;;0.10;0.10;;;;;;;22.17;43.64;100797.16;5136893;27;20051;-30
2022/05/11 06:43:35;;;;;;;0.10;0.10;;;;;;;22.17;43.62;100800.75;5146751;27;20638;-30
2022/05/11 06:46:00;;;;;;;0.10;0.10;;;;;;;22.18;43.42;100798.78;5123323;27;20076;-30
2022/05/11 06:48:26;;;;;;;0.10;0.10;;;;;;;22.19;43.49;100812.38;5132440;27;20548;-30
2022/05/11 06:50:52;;;;;;;0.10;0.10;;;;;;;22.20;43.47;100805.69;5139035;27;20409;-30
2022/05/11 06:53:17;;;;;;;0.10;0.10;;;;;;;22.20;43.58;100808.47;5128624;27;20069;-30
2022/05/11 06:59:25;;;;;;;0.10;0.10;;;;;;;22.21;43.59;100804.56;5118254;27;20126;-29
2022/05/11 07:01:15;;;;;;;0.10;0.10;;;;;;;22.23;43.37;100812.56;5116550;27;20092;-30
2022/05/11 07:03:41;;;;;;;0.10;0.10;;;;;;;22.24;43.45;100808.69;5141139;27;20050;-30
2022/05/11 07:06:07;;;;;;;0.10;0.10;;;;;;;22.24;43.49;100809.50;5132106;27;20059;-31
2022/05/11 07:08:38;;;;;;;0.10;0.10;;;;;;;22.25;43.40;100813.91;5130342;27;20125;-31
2022/05/11 07:13:49;;;;;;;0.10;0.10;;;;;;;22.26;43.28;100811.97;5119168;27;20125;-31
2022/05/11 07:16:16;;;;;;;0.10;0.10;;;;;;;22.27;43.25;100811.66;5137364;27;20038;-30
2022/05/11 07:18:42;;;;;;;0.10;0.10;;;;;;;22.27;43.25;100806.09;5130878;27;20393;-32
2022/05/11 07:21:08;;;;;;;0.10;0.10;;;;;;;22.28;43.30;100802.22;5134215;27;20088;-30
2022/05/11 07:23:34;;;;;;;0.10;0.10;;;;;;;22.29;43.20;100805.81;5114851;27;21617;-32
2022/05/11 07:26:00;;;;;;;0.10;0.10;;;;;;;22.30;43.22;100793.56;5142623;27;20039;-30
2022/05/11 07:28:25;;;;;;;0.10;0.10;;;;;;;22.31;42.97;100791.63;5134313;27;20065;-30
2022/05/11 07:30:51;;;;;;;0.10;0.10;;;;;;;22.29;43.22;100791.94;5142089;27;20378;-31
2022/05/11 07:33:17;;;;;;;0.10;0.10;;;;;;;22.30;43.32;100793.56;5138808;27;20138;-31
2022/05/11 07:35:44;;;;;;;0.10;0.10;;;;;;;22.31;43.12;100791.63;5140092;27;20092;-30
2022/05/11 07:38:13;;;;;;;0.10;0.10;;;;;;;22.31;43.12;100792.44;5134667;27;20391;-30
2022/05/11 07:40:39;;;;;;;0.10;0.10;;;;;;;22.29;43.14;100784.44;5135312;27;20496;-30
2022/05/11 07:43:06;;;;;;;0.10;0.10;;;;;;;22.29;43.19;100789.97;5137423;27;20146;-31
2022/05/11 07:45:31;;;;;;;0.10;0.10;;;;;;;22.31;43.14;100786.91;5134568;27;20055;-30
2022/05/11 07:47:57;;;;;;;0.10;0.10;;;;;;;22.31;43.14;100786.06;5134421;27;20040;-30
2022/05/11 07:50:23;;;;;;;0.10;0.10;;;;;;;22.30;43.13;100785.25;5134002;27;20469;-30
2022/05/11 07:52:48;;;;;;;0.10;0.10;;;;;;;22.31;43.22;100786.06;5137349;27;20076;-30
2022/05/11 07:55:15;;;;;;;0.10;0.10;;;;;;;22.30;43.16;100782.47;5136238;27;20049;-31
2022/05/11 08:00:27;;;;;;;0.10;0.10;;;;;;;22.28;43.09;100788.34;5117020;27;20129;-29
2022/05/11 08:02:55;;;;;;;0.10;0.10;;;;;;;22.05;43.98;100783.72;5140388;27;20058;-43
2022/05/11 08:05:21;;;;;;;0.10;0.10;;;;;;;22.14;43.93;100790.25;5134934;27;20047;-30
2022/05/11 08:07:49;;;;;;;0.10;0.10;;;;;;;22.26;43.81;100785.03;5125566;27;20145;-29
2022/05/11 08:10:19;;;;;;;0.10;0.10;;;;;;;22.32;43.58;100780.22;5129251;27;20078;-31
2022/05/11 08:12:46;;;;;;;0.10;0.10;;;;;;;22.34;43.20;100780.75;5128433;27;20049;-31
2022/05/11 08:15:14;;;;;;;0.10;0.10;;;;;;;22.35;43.40;100790.72;5114589;27;20492;-29
2022/05/11 08:17:42;;;;;;;0.10;0.10;;;;;;;22.36;43.41;100785.97;5131346;27;20081;-33
2022/05/11 08:20:14;;;;;;;0.10;0.10;;;;;;;22.36;43.39;100784.03;5131576;27;20082;-30
2022/05/11 08:22:42;;;;;;;0.10;0.10;;;;;;;22.37;43.28;100788.47;5135200;27;20757;-30
2022/05/11 08:25:10;;;;;;;0.00;0.00;;;;;;;22.37;43.23;100782.09;5131825;27;20211;-31
2022/05/11 08:27:36;;;;;;;;;;;;;;;22.39;43.24;100786.19;5133076;27;20590;-31
2022/05/11 08:35:58;;;;;;;0.10;0.10;;;;;;;22.43;43.37;100786.41;5108937;27;20055;-30
2022/05/11 08:38:26;;;;;;;0.10;0.10;;;;;;;22.43;43.29;100773.34;5135208;27;20071;-30
2022/05/11 08:44:12;;;;;;;0.10;0.10;;;;;;;22.45;43.27;100779.44;5168768;27;20209;-29
2022/05/11 08:47:02;;;;;;;0.10;0.10;;;;;;;22.45;43.26;100782.22;5157129;27;20089;-28
2022/05/11 08:49:46;;;;;;;0.10;0.10;;;;;;;22.47;43.38;100776.34;5137375;27;20485;-28
2022/05/11 08:52:18;;;;;;;0.10;0.10;;;;;;;22.47;43.29;100777.16;5155481;27;20153;-28
2022/05/11 08:54:50;;;;;;;0.10;0.10;;;;;;;22.48;43.28;100783.53;5158813;27;20517;-29
2022/05/11 08:57:20;;;;;;;0.10;0.10;;;;;;;22.49;43.07;100782.41;5131447;27;20081;-28
2022/05/11 08:59:46;;;;;;;0.10;0.10;;;;;;;22.49;43.07;100788.75;5157079;27;20129;-28
2022/05/11 09:02:22;;;;;;;0.10;0.10;;;;;;;22.50;43.14;100781.28;5153800;27;20413;-28
2022/05/11 09:04:54;;;;;;;0.10;0.10;;;;;;;22.27;43.92;100778.34;5157069;27;20042;-43
2022/05/11 09:07:20;;;;;;;0.10;0.10;;;;;;;22.43;43.71;100781.69;5157797;27;20073;-31
2022/05/11 09:09:46;;;;;;;0.10;0.10;;;;;;;22.53;43.32;100777.88;5141274;27;20125;-31
2022/05/11 09:12:11;;;;;;;0.10;0.10;;;;;;;22.54;43.27;100777.59;5160193;27;20517;-29
2022/05/11 09:14:40;;;;;;;0.10;0.10;;;;;;;22.56;43.22;100773.69;5155662;27;20046;-30
2022/05/11 09:17:20;;;;;;;0.10;0.10;;;;;;;22.58;43.14;100771.41;5161267;27;20345;-31
2022/05/11 09:19:46;;;;;;;0.10;0.10;;;;;;;22.59;43.09;100771.13;5155854;27;20074;-30
2022/05/11 09:22:17;;;;;;;0.10;0.10;;;;;;;22.60;43.05;100769.97;5159689;27;20179;-30
2022/05/11 09:24:48;;;;;;;0.10;0.10;;;;;;;22.61;43.09;100762.47;5159557;27;20083;-31
2022/05/11 09:27:33;;;;;;;0.10;0.10;;;;;;;22.61;43.07;100763.28;5155129;27;20484;-31
2022/05/11 09:30:02;;;;;;;0.10;0.10;;;;;;;22.63;42.99;100768.56;5137700;27;20070;-31
2022/05/11 09:32:38;;;;;;;0.10;0.10;;;;;;;22.63;42.98;100763.81;5135509;27;20048;-31
2022/05/11 09:35:26;;;;;;;0.10;0.10;;;;;;;22.62;42.92;100753.00;5155075;27;20080;-30
2022/05/11 09:38:28;;;;;;;0.10;0.10;;;;;;;22.65;43.05;100763.50;5136117;27;20070;-31
2022/05/11 09:40:58;;;;;;;0.10;0.10;;;;;;;22.66;42.84;100762.38;5100757;27;20141;-31
2022/05/11 09:43:29;;;;;;;0.10;0.10;;;;;;;22.66;42.99;100754.84;5116157;27;20115;-28
2022/05/11 09:45:54;;;;;;;0.10;0.10;;;;;;;22.49;43.62;100752.69;5131045;27;20066;-42
2022/05/11 09:48:25;;;;;;;0.10;0.10;;;;;;;22.45;44.23;100757.25;5114135;27;20287;-29
2022/05/11 09:50:54;;;;;;;0.00;0.00;;;;;;;22.63;43.52;100751.91;5136690;27;20158;-30
2022/05/11 09:53:37;;;;;;;0.10;0.10;;;;;;;22.71;43.32;100754.78;5136463;27;20130;-30
2022/05/11 09:56:22;;;;;;;0.10;0.10;;;;;;;22.73;43.43;100746.94;5122043;27;20081;-30
2022/05/11 09:58:48;;;;;;;0.10;0.10;;;;;;;22.77;43.27;100747.97;5097079;27;20188;-29
2022/05/11 10:01:17;;;;;;;0.10;0.10;;;;;;;22.78;43.17;100749.63;5119608;27;20301;-29
2022/05/11 10:03:48;;;;;;;0.10;0.10;;;;;;;22.78;43.07;100749.63;5103079;28;20092;-30
2022/05/11 10:06:47;;;;;;;0.10;0.10;;;;;;;22.79;43.07;100750.44;5105351;28;20043;-30
2022/05/11 10:09:15;;;;;;;0.10;0.10;;;;;;;22.81;42.97;100739.03;5117591;27;20071;-28
2022/05/11 10:11:45;;;;;;;0.10;0.10;;;;;;;22.79;43.02;100740.13;5119006;28;20565;-30
2022/05/11 10:23:10;;;;;;;0.10;0.10;;;;;;;22.82;42.85;100722.06;5100804;28;20142;-30
2022/05/11 10:25:41;;;;;;;0.10;0.10;;;;;;;22.84;42.84;100728.13;5103487;27;20509;-30
2022/05/11 10:31:29;;;;;;;0.10;0.10;;;;;;;22.86;42.79;100717.53;5157297;27;20198;-28
2022/05/11 10:34:24;;;;;;;0.10;0.10;;;;;;;22.79;43.28;100720.72;5122395;27;20050;-27
2022/05/11 10:37:00;;;;;;;0.10;0.10;;;;;;;22.89;42.93;100716.09;5128303;27;20198;-30
2022/05/11 10:39:44;;;;;;;0.10;0.10;;;;;;;22.91;42.88;100711.06;5139936;27;20079;-30
2022/05/11 10:42:23;;;;;;;0.10;0.10;;;;;;;22.90;42.84;100721.34;5134430;27;20122;-30
2022/05/11 10:45:17;;;;;;;0.10;0.10;;;;;;;22.91;43.02;100714.66;5142320;27;20047;-30
2022/05/11 10:48:12;;;;;;;0.10;0.10;;;;;;;22.96;43.00;100716.50;5115436;27;20382;-29
2022/05/11 10:50:59;;;;;;;0.00;0.00;;;;;;;22.95;43.00;100707.34;5119854;27;20171;-30
2022/05/11 10:53:39;;;;;;;0.10;0.10;;;;;;;22.95;42.87;100704.56;5144970;27;20502;-31
2022/05/11 10:56:26;;;;;;;0.00;0.00;;;;;;;22.96;42.85;100705.41;5144561;27;20128;-30
2022/05/11 10:59:26;;;;;;;0.10;0.10;;;;;;;22.95;42.84;100707.34;5123292;27;20506;-30
2022/05/11 11:02:10;;;;;;;0.10;0.10;;;;;;;22.96;42.86;100699.84;5128119;27;20100;-30
2022/05/11 11:05:01;;;;;;;0.10;0.10;;;;;;;22.96;42.79;100703.44;5134533;27;20061;-31
2022/05/11 11:07:36;;;;;;;0.10;0.10;;;;;;;22.96;42.78;100692.31;5114465;27;20093;-29
2022/05/11 11:10:11;;;;;;;0.10;0.10;;;;;;;22.99;42.84;100690.91;5139302;27;20386;-30
2022/05/11 11:13:20;;;;;;;0.10;0.10;;;;;;;22.98;42.82;100686.47;5123311;27;20047;-29
2022/05/11 11:15:46;;;;;;;0.10;0.10;;;;;;;22.99;42.59;100686.16;5123735;27;20078;-31
2022/05/11 11:18:13;;;;;;;0.10;0.10;;;;;;;23.00;42.72;100675.88;5142303;27;20043;-31
2022/05/11 11:20:42;;;;;;;0.10;0.10;;;;;;;23.00;42.73;100673.09;5139948;27;20043;-30
2022/05/11 11:23:29;;;;;;;0.10;0.10;;;;;;;23.00;42.67;100664.75;5136213;27;20180;-30
2022/05/11 11:25:58;;;;;;;0.10;0.10;;;;;;;23.01;42.72;100663.63;5140289;27;20286;-30
2022/05/11 11:31:18;;;;;;;0.10;0.10;;;;;;;23.01;42.56;100658.91;5155540;27;20209;-28
2022/05/11 11:36:41;;;;;;;0.10;0.10;;;;;;;23.01;42.89;100646.94;5147110;27;20141;-27
2022/05/11 11:39:10;;;;;;;0.10;0.10;;;;;;;22.99;43.25;100641.72;5134886;27;20054;-27
2022/05/11 11:41:48;;;;;;;0.10;0.10;;;;;;;23.06;42.92;100638.53;5134919;27;20083;-27
2022/05/11 11:44:26;;;;;;;0.10;0.10;;;;;;;22.88;45.82;100636.69;5127815;27;20071;-46
2022/05/11 11:46:52;;;;;;;0.00;0.00;;;;;;;22.98;45.56;100630.94;5129093;27;20070;-30
2022/05/11 11:52:00;;;;;;;0.10;0.10;;;;;;;23.19;44.70;100628.50;5175731;27;20212;-31
2022/05/11 11:54:46;;;;;;;0.10;0.10;;;;;;;23.20;44.40;100633.72;5134418;27;20133;-30
2022/05/11 11:59:56;;;;;;;0.10;0.10;;;;;;;23.24;43.76;100620.03;5151045;27;20663;-28
2022/05/11 12:02:42;;;;;;;0.10;0.10;;;;;;;23.21;43.89;100623.44;5141037;27;20134;-27
2022/05/11 12:05:32;;;;;;;0.10;0.10;;;;;;;23.18;43.90;100624.06;5130057;27;20080;-30
2022/05/11 12:16:52;;;;;;;0.10;0.10;;;;;;;23.23;43.42;100615.63;5129494;27;20137;-30
2022/05/11 12:19:19;;;;;;;0.00;0.00;;;;;;;23.23;43.37;100607.28;5140629;27;20073;-30
2022/05/11 12:21:56;;;;;;;0.10;0.10;;;;;;;23.25;43.20;100616.13;5142588;27;20126;-29
2022/05/11 12:24:27;;;;;;;0.10;0.10;;;;;;;23.25;43.36;100600.25;5123030;27;20096;-30
2022/05/11 12:26:57;;;;;;;0.10;0.10;;;;;;;23.26;43.16;100609.41;5129017;27;20077;-30
2022/05/11 12:32:09;;;;;;;0.10;0.10;;;;;;;23.26;43.11;100604.66;5113369;27;20078;-31
2022/05/11 12:34:42;;;;;;;0.10;0.10;;;;;;;23.26;43.08;100607.44;5140784;27;20229;-30
2022/05/11 12:37:29;;;;;;;0.10;0.10;;;;;;;23.26;42.96;100601.06;5119724;27;20126;-30